createdAt,value
2019-04-25T00:00:13.447Z,95646.98
2019-04-25T00:05:21.195Z,95648.07
2019-04-25T00:10:26.846Z,95654.84
2019-04-25T00:15:32.910Z,95669.26
2019-04-25T00:20:42.649Z,95664.89
2019-04-25T00:25:59.091Z,95662.18
2019-04-25T00:31:06.371Z,95662.98
2019-04-25T00:36:13.247Z,95659.19
2019-04-25T00:41:18.708Z,95666.78
2019-04-25T00:46:24.347Z,95663.50
2019-04-25T00:51:30.007Z,95668.41
2019-04-25T00:56:36.067Z,95668.38
2019-04-25T01:01:46.854Z,95671.69
2019-04-25T01:06:53.984Z,95678.70
2019-04-25T01:11:59.607Z,95678.69
2019-04-25T01:17:05.075Z,95680.63
2019-04-25T01:22:10.887Z,95680.33
2019-04-25T01:27:16.511Z,95684.97
2019-04-25T01:32:23.806Z,95693.93
2019-04-25T01:37:31.026Z,95691.25
2019-04-25T01:42:47.956Z,95686.36
2019-04-25T01:47:54.328Z,95691.78
2019-04-25T01:53:00.931Z,95690.45
2019-04-25T01:58:06.449Z,95690.72
2019-04-25T02:03:13.631Z,95695.05
2019-04-25T02:08:19.106Z,95691.80
2019-04-25T02:13:26.308Z,95699.39
2019-04-25T02:18:33.501Z,95694.52
2019-04-25T02:23:39.507Z,95689.09
2019-04-25T02:28:45.027Z,95691.26
2019-04-25T02:33:50.527Z,95692.61
2019-04-25T02:39:00.529Z,95684.22
2019-04-25T02:44:09.245Z,95688.00
2019-04-25T02:49:32.933Z,95690.70
2019-04-25T02:54:30.167Z,95690.70
2019-04-25T02:59:37.065Z,95690.13
2019-04-25T03:04:44.466Z,95680.64
2019-04-25T03:09:50.487Z,95676.30
2019-04-25T03:14:56.147Z,95672.23
2019-04-25T03:20:08.066Z,95676.34
2019-04-25T03:25:14.501Z,95684.47
2019-04-25T03:30:20.252Z,95678.76
2019-04-25T03:35:25.787Z,95682.83
2019-04-25T03:40:31.416Z,95680.13
2019-04-25T03:45:38.026Z,95687.98
2019-04-25T03:50:44.142Z,95702.63
2019-04-25T03:55:49.926Z,95691.25
2019-04-25T04:00:55.546Z,95687.69
2019-04-25T04:06:01.027Z,95692.06
2019-04-25T04:11:07.732Z,95708.06
2019-04-25T04:16:15.720Z,95712.39
2019-04-25T04:21:36.086Z,95702.38
2019-04-25T04:26:43.104Z,95715.92
2019-04-25T04:31:48.666Z,95713.20
2019-04-25T04:36:54.187Z,95719.40
2019-04-25T04:41:59.976Z,95727.52
2019-04-25T04:47:05.485Z,95722.34
2019-04-25T04:52:11.006Z,95734.17
2019-04-25T04:57:27.021Z,95740.81
2019-04-25T05:02:28.626Z,95742.61
2019-04-25T05:07:41.787Z,95743.51
2019-04-25T05:12:47.287Z,95737.00
2019-04-25T05:17:54.152Z,95738.52
2019-04-25T05:22:59.986Z,95735.55
2019-04-25T05:28:06.108Z,95740.58
2019-04-25T05:33:11.687Z,95735.84
2019-04-25T05:38:17.673Z,95726.92
2019-04-25T05:43:24.896Z,95737.66
2019-04-25T05:48:30.927Z,95741.91
2019-04-25T05:53:36.426Z,95734.84
2019-04-25T05:58:43.842Z,95727.89
2019-04-25T06:03:49.279Z,95730.52
2019-04-25T06:08:56.367Z,95735.86
2019-04-25T06:14:03.513Z,95734.52
2019-04-25T06:19:14.149Z,95737.78
2019-04-25T06:24:28.708Z,95738.81
2019-04-25T06:29:34.803Z,95737.98
2019-04-25T06:34:41.988Z,95734.72
2019-04-25T06:39:47.592Z,95735.83
2019-04-25T06:44:54.726Z,95731.63
2019-04-25T06:50:00.247Z,95734.95
2019-04-25T06:55:07.326Z,95733.58
2019-04-25T07:00:15.328Z,95733.22
2019-04-25T07:05:28.966Z,95737.69
2019-04-25T07:10:29.452Z,95742.44
2019-04-25T07:15:35.371Z,95747.63
2019-04-25T07:20:40.924Z,95742.23
2019-04-25T07:25:48.076Z,95747.14
2019-04-25T07:31:13.826Z,95737.45
2019-04-25T07:36:19.688Z,95743.81
2019-04-25T07:41:26.029Z,95746.34
2019-04-25T07:46:32.439Z,95751.04
2019-04-25T07:51:39.228Z,95748.11
2019-04-25T07:56:44.758Z,95744.81
2019-04-25T08:01:50.263Z,95747.84
2019-04-25T08:06:55.866Z,95748.95
2019-04-25T08:12:03.265Z,95746.31
2019-04-25T08:17:10.687Z,95746.53
2019-04-25T08:22:17.568Z,95748.66
2019-04-25T08:27:23.231Z,95748.72
2019-04-25T08:32:28.927Z,95745.16
2019-04-25T08:37:35.642Z,95739.11
2019-04-25T08:42:41.931Z,95746.85
2019-04-25T08:47:47.746Z,95743.37
2019-04-25T08:52:54.392Z,95747.12
2019-04-25T08:58:01.568Z,95741.88
2019-04-25T09:03:24.265Z,95737.36
2019-04-25T09:08:29.932Z,95733.15
2019-04-25T09:13:36.854Z,95725.18
2019-04-25T09:18:45.222Z,95714.82
2019-04-25T09:24:26.845Z,95705.89
2019-04-25T09:29:34.188Z,95688.39
2019-04-25T09:34:40.776Z,95692.38
2019-04-25T09:40:00.072Z,95691.71
2019-04-25T09:45:27.106Z,95684.02
2019-04-25T09:50:34.238Z,95679.17
2019-04-25T09:55:41.744Z,95679.61
2019-04-25T10:00:51.699Z,95673.39
2019-04-25T10:05:57.388Z,95675.69
2019-04-25T10:11:04.044Z,95663.22
2019-04-25T10:16:11.866Z,95661.95
2019-04-25T10:21:18.405Z,95660.35
2019-04-25T10:26:24.546Z,95650.94
2019-04-25T10:31:30.167Z,95659.90
2019-04-25T10:36:35.705Z,95668.48
2019-04-25T10:41:41.518Z,95659.42
2019-04-25T10:46:47.373Z,95650.38
2019-04-25T10:51:54.227Z,95651.55
2019-04-25T10:56:59.968Z,95650.03
2019-04-25T11:02:06.617Z,95646.17
2019-04-25T11:07:13.774Z,95642.73
2019-04-25T11:12:20.187Z,95647.75
2019-04-25T11:17:25.753Z,95643.39
2019-04-25T11:22:31.607Z,95652.09
2019-04-25T11:27:37.166Z,95662.54
2019-04-25T11:32:44.787Z,95656.30
2019-04-25T11:37:52.567Z,95659.62
2019-04-25T11:43:06.233Z,95661.03
2019-04-25T11:48:09.465Z,95659.17
2019-04-25T11:53:15.327Z,95647.88
2019-04-25T11:58:21.149Z,95653.14
2019-04-25T12:03:27.088Z,95638.83
2019-04-25T12:08:33.563Z,95634.41
2019-04-25T12:13:39.528Z,95633.72
2019-04-25T12:18:47.977Z,95641.69
2019-04-25T12:23:52.687Z,95640.45
2019-04-25T12:28:58.553Z,95627.17
2019-04-25T12:34:04.305Z,95627.14
2019-04-25T12:39:10.806Z,95626.41
2019-04-25T12:44:33.108Z,95610.80
2019-04-25T12:49:38.538Z,95609.56
2019-04-25T12:54:45.247Z,95602.61
2019-04-25T12:59:51.274Z,95597.08
2019-04-25T13:04:56.976Z,95604.36
2019-04-25T13:10:02.527Z,95598.45
2019-04-25T13:15:09.805Z,95591.69
2019-04-25T13:20:15.966Z,95589.10
2019-04-25T13:25:24.290Z,95577.45
2019-04-25T13:30:40.679Z,95562.30
2019-04-25T13:36:04.089Z,95557.10
2019-04-25T13:41:10.068Z,95551.21
2019-04-25T13:46:19.963Z,95550.44
2019-04-25T13:51:24.590Z,95550.83
2019-04-25T13:56:30.682Z,95544.59
2019-04-25T14:01:36.542Z,95542.16
2019-04-25T14:06:42.332Z,95540.26
2019-04-25T14:11:47.746Z,95541.58
2019-04-25T14:17:02.889Z,95534.59
2019-04-25T14:22:08.167Z,95530.00
2019-04-25T14:27:14.506Z,95529.62
2019-04-25T14:32:21.426Z,95519.20
2019-04-25T14:37:31.795Z,95520.48
2019-04-25T14:42:35.367Z,95512.88
2019-04-25T14:47:41.213Z,95519.66
2019-04-25T14:52:46.747Z,95520.44
2019-04-25T14:57:54.067Z,95517.04
2019-04-25T15:02:59.689Z,95514.33
2019-04-25T15:08:05.550Z,95521.70
2019-04-25T15:13:11.278Z,95520.27
2019-04-25T15:18:16.915Z,95505.28
2019-04-25T15:23:23.189Z,95497.45
2019-04-25T15:28:29.845Z,95500.00
2019-04-25T15:33:35.787Z,95506.27
2019-04-25T15:38:48.567Z,95514.56
2019-04-25T15:44:04.746Z,95502.36
2019-04-25T15:49:10.638Z,95500.97
2019-04-25T15:54:16.189Z,95484.34
2019-04-25T15:59:21.849Z,95486.98
2019-04-25T16:04:27.368Z,95490.08
2019-04-25T16:09:34.575Z,95488.80
2019-04-25T16:14:40.126Z,95500.40
2019-04-25T16:19:50.226Z,95500.52
2019-04-25T16:24:55.898Z,95504.58
2019-04-25T16:30:01.554Z,95498.89
2019-04-25T16:35:09.228Z,95512.78
2019-04-25T16:40:15.227Z,95513.37
2019-04-25T16:45:21.553Z,95514.63
2019-04-25T16:50:27.926Z,95515.61
2019-04-25T16:55:34.294Z,95511.98
2019-04-25T17:00:47.388Z,95520.20
2019-04-25T17:05:53.036Z,95526.23
2019-04-25T17:10:58.769Z,95529.08
2019-04-25T17:16:06.007Z,95526.42
2019-04-25T17:21:12.068Z,95529.34
2019-04-25T17:26:19.206Z,95533.98
2019-04-25T17:31:32.462Z,95538.03
2019-04-25T17:36:40.772Z,95538.05
2019-04-25T17:41:46.733Z,95544.38
2019-04-25T17:46:52.247Z,95545.21
2019-04-25T17:51:57.907Z,95552.42
2019-04-25T17:57:03.627Z,95551.00
2019-04-25T18:02:09.552Z,95555.72
2019-04-25T18:07:15.233Z,95567.13
2019-04-25T18:12:21.286Z,95578.87
2019-04-25T18:17:27.327Z,95574.53
2019-04-25T18:22:50.007Z,95584.10
2019-04-25T18:28:00.225Z,95580.03
2019-04-25T18:33:22.509Z,95573.61
2019-04-25T18:38:32.687Z,95580.37
2019-04-25T18:43:42.872Z,95589.05
2019-04-25T18:48:48.625Z,95582.91
2019-04-25T18:53:58.866Z,95564.89
2019-04-25T18:59:15.329Z,95568.23
2019-04-25T19:04:22.484Z,95564.13
2019-04-25T19:09:28.114Z,95562.22
2019-04-25T19:14:33.589Z,95560.91
2019-04-25T19:19:39.802Z,95572.61
2019-04-25T19:24:47.193Z,95565.99
2019-04-25T19:29:53.513Z,95564.47
2019-04-25T19:34:59.220Z,95567.29
2019-04-25T19:40:07.326Z,95559.63
2019-04-25T19:45:13.068Z,95568.19
2019-04-25T19:50:18.507Z,95563.45
2019-04-25T19:55:25.307Z,95553.02
2019-04-25T20:00:30.838Z,95549.73
2019-04-25T20:05:38.126Z,95544.73
2019-04-25T20:10:45.233Z,95544.46
2019-04-25T20:15:51.753Z,95543.38
2019-04-25T20:20:58.894Z,95537.37
2019-04-25T20:26:05.567Z,95544.70
2019-04-25T20:31:11.047Z,95552.41
2019-04-25T20:36:17.892Z,95553.26
2019-04-25T20:41:23.852Z,95552.94
2019-04-25T20:46:29.468Z,95558.39
2019-04-25T20:51:34.987Z,95556.55
2019-04-25T20:56:40.647Z,95553.02
2019-04-25T21:01:47.156Z,95556.03
2019-04-25T21:06:54.729Z,95551.67
2019-04-25T21:12:00.532Z,95554.33
2019-04-25T21:17:13.546Z,95559.99
2019-04-25T21:22:19.051Z,95545.20
2019-04-25T21:27:24.728Z,95552.67
2019-04-25T21:32:31.827Z,95549.68
2019-04-25T21:37:37.986Z,95546.69
2019-04-25T21:42:45.488Z,95544.92
2019-04-25T21:47:52.347Z,95543.11
2019-04-25T21:52:59.143Z,95541.08
2019-04-25T21:58:05.346Z,95542.17
2019-04-25T22:03:11.527Z,95544.93
2019-04-25T22:08:18.454Z,95535.30
2019-04-25T22:13:24.064Z,95536.38
2019-04-25T22:18:29.947Z,95531.88
2019-04-25T22:23:35.727Z,95523.47
2019-04-25T22:28:42.446Z,95530.83
2019-04-25T22:33:59.744Z,95527.36
2019-04-25T22:39:11.948Z,95524.98
2019-04-25T22:44:19.438Z,95515.84
2019-04-25T22:49:25.686Z,95515.66
2019-04-25T22:54:31.526Z,95508.66
2019-04-25T22:59:37.507Z,95512.34
2019-04-25T23:04:44.846Z,95507.05
2019-04-25T23:09:52.067Z,95509.89
2019-04-25T23:14:57.947Z,95505.45
2019-04-25T23:20:05.752Z,95502.77
2019-04-25T23:25:14.137Z,95491.50
2019-04-25T23:30:21.628Z,95495.84
2019-04-25T23:35:31.363Z,95493.23
2019-04-25T23:40:34.367Z,95489.38
2019-04-25T23:45:40.167Z,95476.88
2019-04-25T23:50:45.946Z,95480.25
2019-04-25T23:55:51.566Z,95470.79
